Tutti
Bath Community Hospital Airport (Hot Springs, VA) 47VG Meteo
There is no TAF data available at 47VG or any nearby airports.
There is no METAR data available at 47VG. Showing METAR data for KHSP (3 mi S).
Storico METAR HSP recente (nessun dato per 47VG)
| Date | Time (EDT) | Flight Rules | Wind Dir. | Speed | Type | Height AGL (ft) | Visibility | Temp (°C) | Temp (°F) | Dew Point (°C) | Dew Point (°F) | Rel. Humid. | Pressure | Density Altitude | Remarks |
|---|---|---|---|---|---|---|---|---|---|---|---|---|---|---|---|
| 02-set | 13:35 | VFR | 270° | 7 kt | 10 miles | 27° | 80° | 18° | 64° | 59% | 30.30 in Hg | 5.565 ft | |||
| 02-set | 13:15 | VFR | 280° | 6 kt | 10 miles | 26° | 78° | 19° | 66° | 63% | 30.30 in Hg | 5.445 ft | |||
| 02-set | 12:55 | VFR | 270° | 5 kt | 10 miles | 26° | 78° | 19° | 66° | 66% | 30.30 in Hg | 5.445 ft | |||
| 02-set | 12:35 | VFR | 260° | 5 kt | 10 miles | 26° | 78° | 20° | 68° | 68% | 30.30 in Hg | 5.445 ft | |||
| 02-set | 12:15 | VFR | 300° | 4 kt | 10 miles | 26° | 78° | 19° | 66° | 66% | 30.31 in Hg | 5.435 ft | |||
| 02-set | 11:55 | VFR | 280° | 5 kt | 10 miles | 26° | 78° | 20° | 68° | 69% | 30.31 in Hg | 5.435 ft | |||
| 02-set | 11:35 | VFR | 310° | 5 kt | 10 miles | 25° | 77° | 19° | 66° | 71% | 30.31 in Hg | 5.315 ft | |||
| 02-set | 11:15 | VFR | 290° | 5 kt | 10 miles | 25° | 77° | 19° | 66° | 72% | 30.31 in Hg | 5.315 ft | |||
| 02-set | 10:55 | VFR | 270° | 4 kt | 10 miles | 25° | 77° | 19° | 66° | 71% | 30.31 in Hg | 5.315 ft | |||
| 02-set | 10:35 | VFR | 280° | 5 kt | 10 miles | 24° | 75° | 19° | 66° | 73% | 30.30 in Hg | 5.205 ft | |||
| 02-set | 10:15 | VFR | 290° | 6 kt | 10 miles | 24° | 75° | 19° | 66° | 75% | 30.30 in Hg | 5.205 ft | |||
| 02-set | 09:55 | VFR | 270° | 6 kt | 10 miles | 24° | 75° | 19° | 66° | 75% | 30.29 in Hg | 5.215 ft | |||
| 02-set | 09:35 | VFR | 280° | 6 kt | 10 miles | 24° | 75° | 19° | 66° | 74% | 30.29 in Hg | 5.215 ft | |||
| 02-set | 09:15 | VFR | 280° | 4 kt | 10 miles | 24° | 75° | 19° | 66° | 74% | 30.29 in Hg | 5.215 ft | |||
| 02-set | 08:55 | VFR | 280° | 7 kt | 10 miles | 23° | 73° | 19° | 66° | 76% | 30.29 in Hg | 5.095 ft | |||
| 02-set | 08:15 | VFR | 280° | 6 kt | 10 miles | 22° | 71° | 19° | 66° | 83% | 30.29 in Hg | 4.975 ft | |||
| 02-set | 07:55 | VFR | 270° | 7 kt | 10 miles | 21° | 69° | 19° | 66° | 86% | 30.29 in Hg | 4.855 ft | |||
| 02-set | 07:35 | VFR | 260° | 8 kt | 10 miles | 21° | 69° | 19° | 66° | 88% | 30.29 in Hg | 4.855 ft | |||
| 02-set | 07:15 | VFR | 270° | 8 kt | 10 miles | 21° | 69° | 19° | 66° | 88% | 30.29 in Hg | 4.855 ft | |||
| 02-set | 06:55 | VFR | 270° | 7 kt | 10 miles | 21° | 69° | 19° | 66° | 89% | 30.28 in Hg | 4.865 ft | |||
| 02-set | 06:35 | VFR | 270° | 9 kt | 10 miles | 21° | 69° | 19° | 66° | 87% | 30.28 in Hg | 4.865 ft | |||
| 02-set | 06:15 | VFR | 270° | 7 kt | 10 miles | 21° | 69° | 19° | 66° | 86% | 30.28 in Hg | 4.865 ft | |||
| 02-set | 05:55 | VFR | 270° | 8 kt | 10 miles | 21° | 69° | 19° | 66° | 85% | 30.28 in Hg | 4.865 ft | |||
| 02-set | 05:35 | VFR | 280° | 8 kt | 10 miles | 21° | 69° | 19° | 66° | 85% | 30.28 in Hg | 4.865 ft |
Accedi
| Il tuo browser non è supportato. fai l'upgrade del tuo browser |
